Messwerte Rifle

Temperatur

Temperatur
°C
1576213200 22.00 22.00 0
1576216800 23.00 23.00 0
1576220400 0.00 0.00 -1
1576224000 1.00 1.00 0
1576227600 2.00 2.00
1576231200 3.00 3.00 -1
1576234800 4.00 4.00 -2
1576238400 5.00 5.00 -2
1576242000 6.00 6.00 -1
1576245600 7.00 7.00 -1
1576249200 8.00 8.00 -1
1576252800 9.00 9.00
1576256400 10.00 10.00 0
1576260000 11.00 11.00 2
1576263600 12.00 12.00 3
1576267200 13.00 13.00 6
1576270800 14.00 14.00 7
1576274400 15.00 15.00 7
1576278000 16.00 16.00 7
1576281600 17.00 17.00 5
1576285200 18.00 18.00 4
1576288800 19.00 19.00 5
1576292400 20.00 20.00 4
1576296000 21.00 21.00 3

Aktuellste Messwerte

Wettercharakter
Wetter: bedeckt
Temperatur
3 °C
Feuchtigkeit
65 %
Wind
5 km/hWindrichtung: Ost
Luftdruck
1014 hPa
Messzeit: 13. Dezember 2019, 22.00Datenquelle: METAR

Weitere Messstationen in der Nähe

Messstation Temperatur Entfernung
Sunlight -8.0 °C 32 km
Meeker -2 °C 59 km
Eagle County Regional -1 °C 71 km
Grand Junction 4 °C 82 km
Aspen -3 °C 82 km
Craig -2 °C 109 km
Montrose 1 °C 114 km

Wind

Windrichtung Böen Mittelwind
° km/h km/h
1576213200 22.00 21.00 - 22.00 110° 5
1576216800 23.00 22.00 - 23.00 0
1576220400 0.00 23.00 - 0.00 0
1576224000 1.00 0.00 - 1.00 340° 5
1576227600 2.00 1.00 - 2.00
1576231200 3.00 2.00 - 3.00 150° 5
1576234800 4.00 3.00 - 4.00 60° 5
1576238400 5.00 4.00 - 5.00 180° 5
1576242000 6.00 5.00 - 6.00 240° 5
1576245600 7.00 6.00 - 7.00 0
1576249200 8.00 7.00 - 8.00 80° 10
1576252800 9.00 8.00 - 9.00
1576256400 10.00 9.00 - 10.00 30° 10
1576260000 11.00 10.00 - 11.00 110° 5
1576263600 12.00 11.00 - 12.00 130° 5
1576267200 13.00 12.00 - 13.00 30° 5
1576270800 14.00 13.00 - 14.00 0
1576274400 15.00 14.00 - 15.00 120° 10
1576278000 16.00 15.00 - 16.00 280° 15
1576281600 17.00 16.00 - 17.00 260° 15
1576285200 18.00 17.00 - 18.00 270° 10
1576288800 19.00 18.00 - 19.00 290° 5
1576292400 20.00 19.00 - 20.00 0
1576296000 21.00 20.00 - 21.00 130° 10

Ihre Wetterstation

Fehlt Ihre Wetterstation auf unserem Portal?

Schreiben Sie an network@meteonews.ch

Klima

Wann ist es am wärmsten? Wann regnet es am wenigsten? Unsere Klimadaten geben Auskunft.